Kezdőlap
METAR-TAF:

METAR-TAF

Repülőterek :

Show Low, Arizona, Amerikai Egyesült Államok

földrajzi szélesség: 34-16N, földrajzi hosszúság: 110-00W, magasság: 1954 m

Jelenlegi meteorológiai megfigyelések

A jelentés 34 perccel ezelõtt készült, 05:15 UTC
Déli szél 13 kt
Hőmérséklet 23°C
Páratartalom 53%
Légköri nyomás 1024 hPa
Látótávolság: 16.1 km
Kevés felhő 9500 lábon

METAR: KSOW 220515Z AUTO 17013KT 10SM FEW095 23/13 A3024 RMK AO2

Idő: 22:49 (05:49 UTC)


TAF: hiányzik

Meteorológiai megfigyelések és előrejelzések több, mint 4000 repülőtéren (METAR és TAF jelentéseket).

A térképen piros és sárga pontok jelzik az elérhető meteorológiai állomásokat.

Mozgassa az egeret a pont fölött, hogy megjelenjen az állomás neve.

Azután kattintson az időjárási megfigyelések és előrejelzések megtekintéséhez.

A térkép megváltoztatása: kattintson a fekete keresztel jelölt zöld gombra ráközelítéshez, a vonallal jelölt zöld gombra távolításhoz, vagy a zöld nyilakra a szomszédos térképek eléréséhez.


METAR-TAF: